sensor_id;sensor_type;location;lat;lon;timestamp;pressure;altitude;pressure_sealevel;temperature;humidity
50464;BME280;62167;38.552;-121.478;2022-11-15T00:00:50;101943.97;;;13.58;47.36
50464;BME280;62167;38.552;-121.478;2022-11-15T00:03:20;101944.28;;;13.55;48.42
50464;BME280;62167;38.552;-121.478;2022-11-15T00:05:46;101943.28;;;13.56;48.09
50464;BME280;62167;38.552;-121.478;2022-11-15T00:08:12;101936.94;;;13.47;48.30
50464;BME280;62167;38.552;-121.478;2022-11-15T00:10:38;101941.88;;;13.52;49.22
50464;BME280;62167;38.552;-121.478;2022-11-15T00:13:05;101939.13;;;13.44;49.04
50464;BME280;62167;38.552;-121.478;2022-11-15T00:15:31;101934.69;;;13.43;49.76
50464;BME280;62167;38.552;-121.478;2022-11-15T00:17:56;101942.56;;;13.36;49.35
50464;BME280;62167;38.552;-121.478;2022-11-15T00:20:22;101932.84;;;13.26;49.02
50464;BME280;62167;38.552;-121.478;2022-11-15T00:22:48;101938.13;;;13.17;48.66
50464;BME280;62167;38.552;-121.478;2022-11-15T00:25:14;101935.34;;;13.09;49.57
50464;BME280;62167;38.552;-121.478;2022-11-15T00:27:40;101942.28;;;13.12;48.77
50464;BME280;62167;38.552;-121.478;2022-11-15T00:30:06;101943.47;;;13.09;49.74
50464;BME280;62167;38.552;-121.478;2022-11-15T00:32:32;101942.03;;;13.05;50.66
50464;BME280;62167;38.552;-121.478;2022-11-15T00:34:58;101938.94;;;13.00;51.25
50464;BME280;62167;38.552;-121.478;2022-11-15T00:37:24;101937.16;;;12.91;50.67
50464;BME280;62167;38.552;-121.478;2022-11-15T00:39:49;101946.59;;;12.77;50.73
50464;BME280;62167;38.552;-121.478;2022-11-15T00:42:15;101936.50;;;12.79;50.37
50464;BME280;62167;38.552;-121.478;2022-11-15T00:44:41;101946.06;;;12.73;50.79
50464;BME280;62167;38.552;-121.478;2022-11-15T00:47:07;101952.09;;;12.67;51.11
50464;BME280;62167;38.552;-121.478;2022-11-15T00:49:33;101951.38;;;12.65;51.04
50464;BME280;62167;38.552;-121.478;2022-11-15T00:51:58;101965.72;;;12.66;51.55
50464;BME280;62167;38.552;-121.478;2022-11-15T00:54:24;101955.81;;;12.57;52.29
50464;BME280;62167;38.552;-121.478;2022-11-15T00:56:50;101954.25;;;12.54;52.31
50464;BME280;62167;38.552;-121.478;2022-11-15T00:59:16;101964.00;;;12.37;52.70
50464;BME280;62167;38.552;-121.478;2022-11-15T01:01:42;101964.31;;;12.25;52.99
50464;BME280;62167;38.552;-121.478;2022-11-15T01:04:07;101966.88;;;12.16;53.66
50464;BME280;62167;38.552;-121.478;2022-11-15T01:06:33;101963.22;;;12.08;54.39
50464;BME280;62167;38.552;-121.478;2022-11-15T01:08:59;101965.78;;;12.00;54.53
50464;BME280;62167;38.552;-121.478;2022-11-15T01:11:25;101958.97;;;11.95;54.93
50464;BME280;62167;38.552;-121.478;2022-11-15T01:13:51;101957.41;;;11.83;55.22
50464;BME280;62167;38.552;-121.478;2022-11-15T01:16:17;101957.13;;;11.67;55.95
50464;BME280;62167;38.552;-121.478;2022-11-15T01:18:44;101955.97;;;11.60;56.18
50464;BME280;62167;38.552;-121.478;2022-11-15T01:21:11;101956.25;;;11.47;56.42
50464;BME280;62167;38.552;-121.478;2022-11-15T01:23:37;101961.22;;;11.42;56.68
50464;BME280;62167;38.552;-121.478;2022-11-15T01:26:04;101962.75;;;11.35;57.45
50464;BME280;62167;38.552;-121.478;2022-11-15T01:28:31;101973.41;;;11.27;58.36
50464;BME280;62167;38.552;-121.478;2022-11-15T01:31:00;101968.84;;;11.17;58.76
50464;BME280;62167;38.552;-121.478;2022-11-15T01:33:27;101967.13;;;11.07;58.79
50464;BME280;62167;38.552;-121.478;2022-11-15T01:35:53;101975.03;;;10.99;59.38
50464;BME280;62167;38.552;-121.478;2022-11-15T01:38:19;101970.91;;;10.95;59.75
50464;BME280;62167;38.552;-121.478;2022-11-15T01:40:44;101985.50;;;10.82;59.90
50464;BME280;62167;38.552;-121.478;2022-11-15T01:43:23;101978.66;;;10.78;60.21
50464;BME280;62167;38.552;-121.478;2022-11-15T01:45:55;101977.94;;;10.67;60.32
50464;BME280;62167;38.552;-121.478;2022-11-15T01:48:22;101979.31;;;10.61;59.80
50464;BME280;62167;38.552;-121.478;2022-11-15T01:50:50;101984.25;;;10.56;60.43
50464;BME280;62167;38.552;-121.478;2022-11-15T01:53:16;101983.22;;;10.47;61.57
50464;BME280;62167;38.552;-121.478;2022-11-15T01:55:42;101985.72;;;10.39;62.02
50464;BME280;62167;38.552;-121.478;2022-11-15T01:58:08;101981.84;;;10.32;61.96
50464;BME280;62167;38.552;-121.478;2022-11-15T02:00:34;101987.94;;;10.24;62.36
50464;BME280;62167;38.552;-121.478;2022-11-15T02:03:00;101989.53;;;10.16;62.09
50464;BME280;62167;38.552;-121.478;2022-11-15T02:05:27;101989.31;;;10.07;62.75
50464;BME280;62167;38.552;-121.478;2022-11-15T02:07:53;101994.97;;;10.04;63.26
50464;BME280;62167;38.552;-121.478;2022-11-15T02:10:20;101985.00;;;9.95;63.42
50464;BME280;62167;38.552;-121.478;2022-11-15T02:12:46;101993.59;;;9.89;64.13
50464;BME280;62167;38.552;-121.478;2022-11-15T02:15:12;101991.00;;;9.87;63.50
50464;BME280;62167;38.552;-121.478;2022-11-15T02:17:46;101994.22;;;9.81;63.53
50464;BME280;62167;38.552;-121.478;2022-11-15T02:20:20;101994.03;;;9.73;64.02
50464;BME280;62167;38.552;-121.478;2022-11-15T02:25:46;101991.75;;;9.57;63.95
50464;BME280;62167;38.552;-121.478;2022-11-15T02:31:03;102001.56;;;9.47;63.62
50464;BME280;62167;38.552;-121.478;2022-11-15T02:33:34;102008.44;;;9.40;65.26
50464;BME280;62167;38.552;-121.478;2022-11-15T02:36:02;102008.22;;;9.32;65.96
50464;BME280;62167;38.552;-121.478;2022-11-15T02:40:58;102010.69;;;9.24;65.69
50464;BME280;62167;38.552;-121.478;2022-11-15T02:43:29;102005.69;;;9.19;65.33
50464;BME280;62167;38.552;-121.478;2022-11-15T02:46:15;102009.59;;;9.15;65.65
50464;BME280;62167;38.552;-121.478;2022-11-15T02:48:44;102017.19;;;9.10;65.96
50464;BME280;62167;38.552;-121.478;2022-11-15T02:51:10;102015.00;;;9.04;66.63
50464;BME280;62167;38.552;-121.478;2022-11-15T02:53:37;102022.44;;;9.00;66.50
50464;BME280;62167;38.552;-121.478;2022-11-15T02:56:03;102019.03;;;8.98;66.48
50464;BME280;62167;38.552;-121.478;2022-11-15T02:58:47;102020.25;;;8.94;66.41
50464;BME280;62167;38.552;-121.478;2022-11-15T03:04:16;102011.47;;;8.81;66.81
50464;BME280;62167;38.552;-121.478;2022-11-15T03:06:53;102014.66;;;8.75;67.01
50464;BME280;62167;38.552;-121.478;2022-11-15T03:09:28;102011.09;;;8.63;67.41
50464;BME280;62167;38.552;-121.478;2022-11-15T03:12:45;102014.38;;;8.55;67.87
50464;BME280;62167;38.552;-121.478;2022-11-15T03:15:06;102009.72;;;8.46;68.34
50464;BME280;62167;38.552;-121.478;2022-11-15T03:17:35;102019.03;;;8.42;68.69
50464;BME280;62167;38.552;-121.478;2022-11-15T03:20:05;102017.03;;;8.33;69.14
50464;BME280;62167;38.552;-121.478;2022-11-15T03:22:39;102017.25;;;8.30;68.87
50464;BME280;62167;38.552;-121.478;2022-11-15T03:25:07;102016.75;;;8.25;69.20
50464;BME280;62167;38.552;-121.478;2022-11-15T03:27:39;102020.41;;;8.24;69.14
50464;BME280;62167;38.552;-121.478;2022-11-15T03:30:06;102018.94;;;8.20;69.11
50464;BME280;62167;38.552;-121.478;2022-11-15T03:32:37;102020.38;;;8.13;69.22
50464;BME280;62167;38.552;-121.478;2022-11-15T03:35:06;102019.03;;;8.07;69.53
50464;BME280;62167;38.552;-121.478;2022-11-15T03:38:17;102026.59;;;8.02;69.86
50464;BME280;62167;38.552;-121.478;2022-11-15T03:40:24;102027.16;;;7.94;70.23
50464;BME280;62167;38.552;-121.478;2022-11-15T03:43:02;102026.56;;;7.91;70.79
50464;BME280;62167;38.552;-121.478;2022-11-15T03:45:35;102024.56;;;7.82;71.21
50464;BME280;62167;38.552;-121.478;2022-11-15T03:48:07;102031.63;;;7.83;71.14
50464;BME280;62167;38.552;-121.478;2022-11-15T03:50:35;102038.06;;;7.80;71.60
50464;BME280;62167;38.552;-121.478;2022-11-15T03:53:02;102033.16;;;7.74;72.01
50464;BME280;62167;38.552;-121.478;2022-11-15T03:55:28;102039.00;;;7.68;71.69
50464;BME280;62167;38.552;-121.478;2022-11-15T03:57:54;102044.56;;;7.65;72.03
50464;BME280;62167;38.552;-121.478;2022-11-15T04:00:22;102044.91;;;7.60;72.20
50464;BME280;62167;38.552;-121.478;2022-11-15T04:02:48;102047.97;;;7.56;72.85
50464;BME280;62167;38.552;-121.478;2022-11-15T04:05:14;102039.03;;;7.55;72.55
50464;BME280;62167;38.552;-121.478;2022-11-15T04:07:40;102045.50;;;7.52;72.50
50464;BME280;62167;38.552;-121.478;2022-11-15T04:10:06;102041.19;;;7.50;72.61
50464;BME280;62167;38.552;-121.478;2022-11-15T04:12:32;102045.97;;;7.46;72.57
50464;BME280;62167;38.552;-121.478;2022-11-15T04:15:03;102046.16;;;7.43;72.72
50464;BME280;62167;38.552;-121.478;2022-11-15T04:17:54;102052.72;;;7.39;73.08
50464;BME280;62167;38.552;-121.478;2022-11-15T04:20:20;102045.53;;;7.40;72.91
50464;BME280;62167;38.552;-121.478;2022-11-15T04:23:08;102054.28;;;7.31;73.51
50464;BME280;62167;38.552;-121.478;2022-11-15T04:25:53;102054.94;;;7.21;73.43
50464;BME280;62167;38.552;-121.478;2022-11-15T04:28:19;102050.63;;;7.19;73.50
50464;BME280;62167;38.552;-121.478;2022-11-15T04:30:45;102062.56;;;7.15;73.73
50464;BME280;62167;38.552;-121.478;2022-11-15T04:33:11;102063.44;;;7.15;73.48
50464;BME280;62167;38.552;-121.478;2022-11-15T04:35:37;102059.00;;;7.14;73.52
50464;BME280;62167;38.552;-121.478;2022-11-15T04:38:03;102055.72;;;7.11;73.86
50464;BME280;62167;38.552;-121.478;2022-11-15T04:40:30;102055.41;;;7.02;74.47
50464;BME280;62167;38.552;-121.478;2022-11-15T04:42:55;102058.31;;;6.99;74.43
50464;BME280;62167;38.552;-121.478;2022-11-15T04:45:21;102061.00;;;6.99;74.35
50464;BME280;62167;38.552;-121.478;2022-11-15T04:47:47;102054.22;;;6.94;74.27
50464;BME280;62167;38.552;-121.478;2022-11-15T04:50:13;102051.78;;;6.91;74.78
50464;BME280;62167;38.552;-121.478;2022-11-15T04:52:43;102058.19;;;6.88;74.69
50464;BME280;62167;38.552;-121.478;2022-11-15T04:55:15;102062.94;;;6.85;74.90
50464;BME280;62167;38.552;-121.478;2022-11-15T04:57:40;102064.56;;;6.74;75.27
50464;BME280;62167;38.552;-121.478;2022-11-15T05:00:07;102063.66;;;6.74;75.51
50464;BME280;62167;38.552;-121.478;2022-11-15T05:02:34;102077.41;;;6.69;75.25
50464;BME280;62167;38.552;-121.478;2022-11-15T05:05:18;102072.03;;;6.69;75.52
50464;BME280;62167;38.552;-121.478;2022-11-15T05:07:44;102067.94;;;6.64;75.96
50464;BME280;62167;38.552;-121.478;2022-11-15T05:10:10;102079.75;;;6.61;76.01
50464;BME280;62167;38.552;-121.478;2022-11-15T05:12:36;102082.53;;;6.60;75.86
50464;BME280;62167;38.552;-121.478;2022-11-15T05:15:02;102082.94;;;6.54;76.49
50464;BME280;62167;38.552;-121.478;2022-11-15T05:17:28;102084.22;;;6.48;76.47
50464;BME280;62167;38.552;-121.478;2022-11-15T05:19:54;102082.50;;;6.47;76.72
50464;BME280;62167;38.552;-121.478;2022-11-15T05:22:20;102085.50;;;6.42;77.15
50464;BME280;62167;38.552;-121.478;2022-11-15T05:24:46;102088.50;;;6.38;76.95
50464;BME280;62167;38.552;-121.478;2022-11-15T05:27:12;102081.00;;;6.30;76.87
50464;BME280;62167;38.552;-121.478;2022-11-15T05:29:37;102089.22;;;6.27;77.37
50464;BME280;62167;38.552;-121.478;2022-11-15T05:32:04;102087.53;;;6.26;77.27
50464;BME280;62167;38.552;-121.478;2022-11-15T05:34:31;102088.91;;;6.19;77.92
50464;BME280;62167;38.552;-121.478;2022-11-15T05:36:57;102091.66;;;6.17;77.83
50464;BME280;62167;38.552;-121.478;2022-11-15T05:39:23;102097.13;;;6.16;77.68
50464;BME280;62167;38.552;-121.478;2022-11-15T05:41:51;102100.88;;;6.13;78.31
50464;BME280;62167;38.552;-121.478;2022-11-15T05:44:19;102101.94;;;6.11;77.95
50464;BME280;62167;38.552;-121.478;2022-11-15T05:46:46;102102.97;;;6.08;77.95
50464;BME280;62167;38.552;-121.478;2022-11-15T05:49:14;102099.56;;;6.06;77.87
50464;BME280;62167;38.552;-121.478;2022-11-15T05:51:42;102102.53;;;6.02;78.43
50464;BME280;62167;38.552;-121.478;2022-11-15T05:54:09;102098.56;;;5.94;78.25
50464;BME280;62167;38.552;-121.478;2022-11-15T05:56:36;102089.78;;;5.92;78.02
50464;BME280;62167;38.552;-121.478;2022-11-15T05:59:02;102088.16;;;5.90;79.12
50464;BME280;62167;38.552;-121.478;2022-11-15T06:01:28;102094.53;;;5.87;78.30
50464;BME280;62167;38.552;-121.478;2022-11-15T06:03:54;102087.47;;;5.86;79.28
50464;BME280;62167;38.552;-121.478;2022-11-15T06:06:20;102090.47;;;5.82;78.90
50464;BME280;62167;38.552;-121.478;2022-11-15T06:08:45;102090.75;;;5.77;79.12
50464;BME280;62167;38.552;-121.478;2022-11-15T06:11:13;102089.03;;;5.76;79.14
50464;BME280;62167;38.552;-121.478;2022-11-15T06:13:38;102096.09;;;5.77;79.23
50464;BME280;62167;38.552;-121.478;2022-11-15T06:16:04;102088.19;;;5.76;79.36
50464;BME280;62167;38.552;-121.478;2022-11-15T06:18:34;102088.31;;;5.74;79.33
50464;BME280;62167;38.552;-121.478;2022-11-15T06:21:00;102079.72;;;5.69;79.81
50464;BME280;62167;38.552;-121.478;2022-11-15T06:23:26;102088.91;;;5.65;79.53
50464;BME280;62167;38.552;-121.478;2022-11-15T06:25:52;102087.28;;;5.62;79.61
50464;BME280;62167;38.552;-121.478;2022-11-15T06:28:18;102078.63;;;5.59;80.04
50464;BME280;62167;38.552;-121.478;2022-11-15T06:30:44;102079.56;;;5.58;79.96
50464;BME280;62167;38.552;-121.478;2022-11-15T06:33:10;102079.75;;;5.55;80.38
50464;BME280;62167;38.552;-121.478;2022-11-15T06:35:36;102083.59;;;5.51;80.81
50464;BME280;62167;38.552;-121.478;2022-11-15T06:38:05;102079.22;;;5.50;80.82
50464;BME280;62167;38.552;-121.478;2022-11-15T06:40:35;102072.34;;;5.45;81.04
50464;BME280;62167;38.552;-121.478;2022-11-15T06:43:01;102083.88;;;5.46;81.69
50464;BME280;62167;38.552;-121.478;2022-11-15T06:45:27;102075.00;;;5.45;81.43
50464;BME280;62167;38.552;-121.478;2022-11-15T06:47:53;102081.44;;;5.43;81.37
50464;BME280;62167;38.552;-121.478;2022-11-15T06:50:19;102075.41;;;5.39;81.69
50464;BME280;62167;38.552;-121.478;2022-11-15T06:52:45;102070.19;;;5.38;81.79
50464;BME280;62167;38.552;-121.478;2022-11-15T06:55:10;102080.00;;;5.37;81.79
50464;BME280;62167;38.552;-121.478;2022-11-15T06:57:36;102066.53;;;5.39;80.97
50464;BME280;62167;38.552;-121.478;2022-11-15T07:00:03;102066.66;;;5.37;80.88
50464;BME280;62167;38.552;-121.478;2022-11-15T07:02:29;102066.66;;;5.37;81.55
50464;BME280;62167;38.552;-121.478;2022-11-15T07:04:55;102067.97;;;5.30;81.55
50464;BME280;62167;38.552;-121.478;2022-11-15T07:07:21;102070.94;;;5.26;81.77
50464;BME280;62167;38.552;-121.478;2022-11-15T07:09:47;102070.09;;;5.25;81.27
50464;BME280;62167;38.552;-121.478;2022-11-15T07:12:13;102074.69;;;5.23;81.51
50464;BME280;62167;38.552;-121.478;2022-11-15T07:14:38;102073.06;;;5.20;81.23
50464;BME280;62167;38.552;-121.478;2022-11-15T07:17:04;102068.84;;;5.16;81.58
50464;BME280;62167;38.552;-121.478;2022-11-15T07:19:31;102074.31;;;5.15;82.70
50464;BME280;62167;38.552;-121.478;2022-11-15T07:21:56;102063.72;;;5.13;81.69
50464;BME280;62167;38.552;-121.478;2022-11-15T07:24:22;102061.91;;;5.14;82.69
50464;BME280;62167;38.552;-121.478;2022-11-15T07:26:48;102067.44;;;5.11;82.51
50464;BME280;62167;38.552;-121.478;2022-11-15T07:29:14;102066.56;;;5.10;81.98
50464;BME280;62167;38.552;-121.478;2022-11-15T07:31:40;102073.00;;;5.08;82.06
50464;BME280;62167;38.552;-121.478;2022-11-15T07:34:06;102077.56;;;5.06;81.49
50464;BME280;62167;38.552;-121.478;2022-11-15T07:36:31;102090.91;;;5.06;82.01
50464;BME280;62167;38.552;-121.478;2022-11-15T07:38:57;102086.53;;;5.05;81.60
50464;BME280;62167;38.552;-121.478;2022-11-15T07:41:23;102083.09;;;5.03;81.72
50464;BME280;62167;38.552;-121.478;2022-11-15T07:43:51;102076.34;;;4.97;81.70
50464;BME280;62167;38.552;-121.478;2022-11-15T07:46:17;102089.75;;;4.95;82.39
50464;BME280;62167;38.552;-121.478;2022-11-15T07:48:43;102083.69;;;4.93;83.03
50464;BME280;62167;38.552;-121.478;2022-11-15T07:51:12;102087.31;;;4.92;82.55
50464;BME280;62167;38.552;-121.478;2022-11-15T07:53:39;102086.44;;;4.92;82.52
50464;BME280;62167;38.552;-121.478;2022-11-15T07:56:06;102086.44;;;4.92;82.87
50464;BME280;62167;38.552;-121.478;2022-11-15T07:58:31;102091.69;;;4.93;82.55
50464;BME280;62167;38.552;-121.478;2022-11-15T08:00:57;102095.59;;;4.88;81.26
50464;BME280;62167;38.552;-121.478;2022-11-15T08:03:23;102097.78;;;4.81;82.53
50464;BME280;62167;38.552;-121.478;2022-11-15T08:05:50;102101.97;;;4.85;82.86
50464;BME280;62167;38.552;-121.478;2022-11-15T08:08:16;102096.75;;;4.84;82.36
50464;BME280;62167;38.552;-121.478;2022-11-15T08:10:42;102102.25;;;4.81;82.12
50464;BME280;62167;38.552;-121.478;2022-11-15T08:13:09;102099.84;;;4.76;81.98
50464;BME280;62167;38.552;-121.478;2022-11-15T08:15:35;102094.34;;;4.79;81.64
50464;BME280;62167;38.552;-121.478;2022-11-15T08:18:02;102091.84;;;4.76;82.77
50464;BME280;62167;38.552;-121.478;2022-11-15T08:20:29;102096.25;;;4.77;81.97
50464;BME280;62167;38.552;-121.478;2022-11-15T08:22:55;102100.94;;;4.74;82.80
50464;BME280;62167;38.552;-121.478;2022-11-15T08:25:22;102109.03;;;4.72;82.54
50464;BME280;62167;38.552;-121.478;2022-11-15T08:27:51;102110.91;;;4.70;82.41
50464;BME280;62167;38.552;-121.478;2022-11-15T08:30:17;102103.28;;;4.64;82.79
50464;BME280;62167;38.552;-121.478;2022-11-15T08:32:43;102105.09;;;4.63;82.57
50464;BME280;62167;38.552;-121.478;2022-11-15T08:35:09;102113.13;;;4.63;82.40
50464;BME280;62167;38.552;-121.478;2022-11-15T08:37:35;102122.16;;;4.61;82.50
50464;BME280;62167;38.552;-121.478;2022-11-15T08:40:01;102115.31;;;4.57;82.19
50464;BME280;62167;38.552;-121.478;2022-11-15T08:42:27;102110.03;;;4.55;82.14
50464;BME280;62167;38.552;-121.478;2022-11-15T08:44:53;102115.31;;;4.57;82.38
50464;BME280;62167;38.552;-121.478;2022-11-15T08:47:18;102110.13;;;4.54;82.66
50464;BME280;62167;38.552;-121.478;2022-11-15T08:49:44;102113.78;;;4.53;82.30
50464;BME280;62167;38.552;-121.478;2022-11-15T08:52:10;102124.63;;;4.50;83.02
50464;BME280;62167;38.552;-121.478;2022-11-15T08:54:36;102123.00;;;4.47;82.76
50464;BME280;62167;38.552;-121.478;2022-11-15T08:57:01;102123.28;;;4.42;82.80
50464;BME280;62167;38.552;-121.478;2022-11-15T08:59:27;102124.41;;;4.38;82.98
50464;BME280;62167;38.552;-121.478;2022-11-15T09:01:53;102126.38;;;4.35;83.51
50464;BME280;62167;38.552;-121.478;2022-11-15T09:04:19;102120.28;;;4.33;83.44
50464;BME280;62167;38.552;-121.478;2022-11-15T09:06:45;102124.84;;;4.31;83.22
50464;BME280;62167;38.552;-121.478;2022-11-15T09:09:11;102134.75;;;4.29;82.64
50464;BME280;62167;38.552;-121.478;2022-11-15T09:11:37;102142.06;;;4.25;82.89
50464;BME280;62167;38.552;-121.478;2022-11-15T09:14:02;102137.69;;;4.24;83.29
50464;BME280;62167;38.552;-121.478;2022-11-15T09:16:29;102133.22;;;4.25;82.92
50464;BME280;62167;38.552;-121.478;2022-11-15T09:18:55;102137.69;;;4.24;82.67
50464;BME280;62167;38.552;-121.478;2022-11-15T09:21:22;102140.56;;;4.21;83.46
50464;BME280;62167;38.552;-121.478;2022-11-15T09:23:51;102145.88;;;4.21;82.95
50464;BME280;62167;38.552;-121.478;2022-11-15T09:26:18;102144.25;;;4.19;83.22
50464;BME280;62167;38.552;-121.478;2022-11-15T09:28:44;102155.97;;;4.16;83.42
50464;BME280;62167;38.552;-121.478;2022-11-15T09:31:10;102145.38;;;4.14;83.07
50464;BME280;62167;38.552;-121.478;2022-11-15T09:33:36;102148.22;;;4.11;82.64
50464;BME280;62167;38.552;-121.478;2022-11-15T09:36:08;102157.44;;;4.06;82.88
50464;BME280;62167;38.552;-121.478;2022-11-15T09:38:34;102154.19;;;4.01;83.16
50464;BME280;62167;38.552;-121.478;2022-11-15T09:49:08;102151.84;;;3.95;84.01
50464;BME280;62167;38.552;-121.478;2022-11-15T09:51:37;102158.03;;;3.95;83.93
50464;BME280;62167;38.552;-121.478;2022-11-15T09:54:35;102151.00;;;3.94;83.27
50464;BME280;62167;38.552;-121.478;2022-11-15T09:59:36;102155.47;;;3.94;83.46
50464;BME280;62167;38.552;-121.478;2022-11-15T10:02:17;102150.59;;;3.86;84.39
50464;BME280;62167;38.552;-121.478;2022-11-15T10:04:45;102144.41;;;3.85;84.01
50464;BME280;62167;38.552;-121.478;2022-11-15T10:07:16;102149.88;;;3.82;84.20
50464;BME280;62167;38.552;-121.478;2022-11-15T10:12:28;102155.47;;;3.78;84.54
50464;BME280;62167;38.552;-121.478;2022-11-15T10:15:05;102145.69;;;3.78;84.45
50464;BME280;62167;38.552;-121.478;2022-11-15T10:22:46;102151.97;;;3.77;84.12
50464;BME280;62167;38.552;-121.478;2022-11-15T10:27:39;102154.03;;;3.72;84.12
50464;BME280;62167;38.552;-121.478;2022-11-15T10:30:10;102151.44;;;3.71;84.45
50464;BME280;62167;38.552;-121.478;2022-11-15T10:32:36;102154.38;;;3.66;83.88
50464;BME280;62167;38.552;-121.478;2022-11-15T10:35:15;102155.38;;;3.63;84.31
50464;BME280;62167;38.552;-121.478;2022-11-15T10:37:42;102157.09;;;3.64;84.18
50464;BME280;62167;38.552;-121.478;2022-11-15T10:42:45;102158.25;;;3.60;84.73
50464;BME280;62167;38.552;-121.478;2022-11-15T10:45:25;102162.63;;;3.61;84.25
50464;BME280;62167;38.552;-121.478;2022-11-15T10:47:51;102158.31;;;3.59;84.57
50464;BME280;62167;38.552;-121.478;2022-11-15T10:50:30;102154.78;;;3.58;84.40
50464;BME280;62167;38.552;-121.478;2022-11-15T10:52:56;102162.88;;;3.57;84.30
50464;BME280;62167;38.552;-121.478;2022-11-15T10:55:23;102154.88;;;3.57;83.81
50464;BME280;62167;38.552;-121.478;2022-11-15T10:57:51;102154.13;;;3.55;83.49
50464;BME280;62167;38.552;-121.478;2022-11-15T11:08:05;102152.88;;;3.45;84.61
50464;BME280;62167;38.552;-121.478;2022-11-15T11:10:31;102161.22;;;3.38;84.44
50464;BME280;62167;38.552;-121.478;2022-11-15T11:13:14;102155.13;;;3.36;84.96
50464;BME280;62167;38.552;-121.478;2022-11-15T11:15:41;102156.84;;;3.37;84.51
50464;BME280;62167;38.552;-121.478;2022-11-15T11:18:15;102152.28;;;3.39;84.47
50464;BME280;62167;38.552;-121.478;2022-11-15T11:20:45;102157.59;;;3.39;84.50
50464;BME280;62167;38.552;-121.478;2022-11-15T11:31:00;102158.38;;;3.26;84.95
50464;BME280;62167;38.552;-121.478;2022-11-15T11:33:33;102161.97;;;3.25;85.13
50464;BME280;62167;38.552;-121.478;2022-11-15T11:36:06;102167.22;;;3.26;84.34
50464;BME280;62167;38.552;-121.478;2022-11-15T11:41:34;102162.84;;;3.25;84.22
50464;BME280;62167;38.552;-121.478;2022-11-15T11:44:22;102169.19;;;3.23;84.19
50464;BME280;62167;38.552;-121.478;2022-11-15T11:52:12;102165.38;;;3.11;84.94
50464;BME280;62167;38.552;-121.478;2022-11-15T11:57:51;102179.03;;;3.05;84.05
50464;BME280;62167;38.552;-121.478;2022-11-15T12:00:22;102173.59;;;3.06;84.36
50464;BME280;62167;38.552;-121.478;2022-11-15T12:05:37;102179.19;;;3.02;84.80
50464;BME280;62167;38.552;-121.478;2022-11-15T12:08:18;102179.41;;;2.97;84.91
50464;BME280;62167;38.552;-121.478;2022-11-15T12:10:48;102187.72;;;2.91;84.91
50464;BME280;62167;38.552;-121.478;2022-11-15T12:13:19;102191.16;;;2.93;85.11
50464;BME280;62167;38.552;-121.478;2022-11-15T12:15:48;102197.44;;;2.92;85.15
50464;BME280;62167;38.552;-121.478;2022-11-15T12:18:18;102190.47;;;2.90;85.04
50464;BME280;62167;38.552;-121.478;2022-11-15T12:21:02;102205.59;;;2.89;85.59
50464;BME280;62167;38.552;-121.478;2022-11-15T12:23:37;102195.19;;;2.84;85.67
50464;BME280;62167;38.552;-121.478;2022-11-15T12:26:08;102195.41;;;2.80;85.49
50464;BME280;62167;38.552;-121.478;2022-11-15T12:28:56;102197.22;;;2.79;85.62
50464;BME280;62167;38.552;-121.478;2022-11-15T12:33:51;102191.19;;;2.76;85.46
50464;BME280;62167;38.552;-121.478;2022-11-15T12:38:51;102196.59;;;2.74;85.42
50464;BME280;62167;38.552;-121.478;2022-11-15T12:41:19;102196.59;;;2.74;85.50
50464;BME280;62167;38.552;-121.478;2022-11-15T12:43:45;102191.28;;;2.74;85.73
50464;BME280;62167;38.552;-121.478;2022-11-15T12:46:19;102200.34;;;2.70;85.55
50464;BME280;62167;38.552;-121.478;2022-11-15T12:48:53;102191.28;;;2.74;85.51
50464;BME280;62167;38.552;-121.478;2022-11-15T12:51:21;102193.09;;;2.74;85.10
50464;BME280;62167;38.552;-121.478;2022-11-15T12:53:47;102203.63;;;2.75;85.11
50464;BME280;62167;38.552;-121.478;2022-11-15T12:58:43;102203.25;;;2.66;84.91
50464;BME280;62167;38.552;-121.478;2022-11-15T13:01:12;102201.66;;;2.62;85.48
50464;BME280;62167;38.552;-121.478;2022-11-15T13:11:58;102217.09;;;2.55;85.30
50464;BME280;62167;38.552;-121.478;2022-11-15T13:14:57;102225.06;;;2.55;85.18
50464;BME280;62167;38.552;-121.478;2022-11-15T13:22:38;102235.13;;;2.48;85.52
50464;BME280;62167;38.552;-121.478;2022-11-15T13:27:46;102229.13;;;2.45;85.41
50464;BME280;62167;38.552;-121.478;2022-11-15T13:30:19;102225.75;;;2.41;85.38
50464;BME280;62167;38.552;-121.478;2022-11-15T13:32:45;102221.47;;;2.39;85.70
50464;BME280;62167;38.552;-121.478;2022-11-15T13:35:18;102228.63;;;2.37;85.40
50464;BME280;62167;38.552;-121.478;2022-11-15T13:37:45;102232.31;;;2.34;85.36
50464;BME280;62167;38.552;-121.478;2022-11-15T13:42:46;102228.84;;;2.32;85.43
50464;BME280;62167;38.552;-121.478;2022-11-15T13:45:13;102222.59;;;2.33;85.80
50464;BME280;62167;38.552;-121.478;2022-11-15T13:47:40;102216.81;;;2.25;85.73
50464;BME280;62167;38.552;-121.478;2022-11-15T13:50:06;102213.28;;;2.24;85.76
50464;BME280;62167;38.552;-121.478;2022-11-15T13:52:33;102212.25;;;2.27;85.78
50464;BME280;62167;38.552;-121.478;2022-11-15T13:55:04;102213.13;;;2.27;85.22
50464;BME280;62167;38.552;-121.478;2022-11-15T13:57:44;102224.69;;;2.26;85.57
50464;BME280;62167;38.552;-121.478;2022-11-15T14:02:55;102225.00;;;2.20;85.69
50464;BME280;62167;38.552;-121.478;2022-11-15T14:05:23;102225.22;;;2.16;85.75
50464;BME280;62167;38.552;-121.478;2022-11-15T14:07:55;102225.09;;;2.19;86.21